createdAt,value
2022-08-31T00:00:30.342Z,62.57
2022-08-31T00:03:54.453Z,61.96
2022-08-31T00:06:59.970Z,61.78
2022-08-31T00:10:05.727Z,61.98
2022-08-31T00:13:11.340Z,62.12
2022-08-31T00:16:18.073Z,61.78
2022-08-31T00:19:24.478Z,60.92
2022-08-31T00:22:30.099Z,60.80
2022-08-31T00:25:35.609Z,60.40
2022-08-31T00:28:40.575Z,60.85
2022-08-31T00:31:45.371Z,61.08
2022-08-31T00:34:50.434Z,61.68
2022-08-31T00:37:55.787Z,61.69
2022-08-31T00:41:01.451Z,62.61
2022-08-31T00:44:14.436Z,62.48
2022-08-31T00:47:20.566Z,61.65
2022-08-31T00:50:27.183Z,61.71
2022-08-31T00:53:33.338Z,62.57
2022-08-31T00:56:33.194Z,62.93
2022-08-31T00:59:40.040Z,62.67
2022-08-31T01:02:45.270Z,62.49
2022-08-31T01:05:51.502Z,62.76
2022-08-31T01:08:59.019Z,62.20
2022-08-31T01:12:03.639Z,62.71
2022-08-31T01:15:10.172Z,62.75
2022-08-31T01:18:17.885Z,62.88
2022-08-31T01:21:57.658Z,62.94
2022-08-31T01:25:03.682Z,62.88
2022-08-31T01:28:09.241Z,62.95
2022-08-31T01:31:20.429Z,62.46
2022-08-31T01:34:24.938Z,62.23
2022-08-31T01:37:30.302Z,62.09
2022-08-31T01:40:38.108Z,61.95
2022-08-31T01:43:44.956Z,61.75
2022-08-31T01:46:50.855Z,61.48
2022-08-31T01:49:57.863Z,60.90
2022-08-31T01:53:04.179Z,61.17
2022-08-31T01:56:09.973Z,61.35
2022-08-31T01:59:16.519Z,61.18
2022-08-31T02:02:32.962Z,60.45
2022-08-31T02:05:31.063Z,60.78
2022-08-31T02:08:37.187Z,60.70
2022-08-31T02:11:44.821Z,59.87
2022-08-31T02:14:50.748Z,59.50
2022-08-31T02:17:56.373Z,60.06
2022-08-31T02:21:01.886Z,59.79
2022-08-31T02:24:09.299Z,60.31
2022-08-31T02:27:16.135Z,59.17
2022-08-31T02:30:23.287Z,58.99
2022-08-31T02:33:31.448Z,58.81
2022-08-31T02:36:39.044Z,59.23
2022-08-31T02:39:45.669Z,58.80
2022-08-31T02:42:54.245Z,59.06
2022-08-31T02:46:00.310Z,58.83
2022-08-31T02:49:07.825Z,59.03
2022-08-31T02:52:14.700Z,58.84
2022-08-31T02:55:20.075Z,58.92
2022-08-31T02:58:27.137Z,59.03
2022-08-31T03:01:33.169Z,59.12
2022-08-31T03:04:38.082Z,58.91
2022-08-31T03:07:45.978Z,58.90
2022-08-31T03:10:51.786Z,59.19
2022-08-31T03:13:58.810Z,59.39
2022-08-31T03:17:05.192Z,59.59
2022-08-31T03:20:12.882Z,59.28
2022-08-31T03:23:22.658Z,59.34
2022-08-31T03:26:27.946Z,59.15
2022-08-31T03:29:33.516Z,57.89
2022-08-31T03:32:47.256Z,57.44
2022-08-31T03:35:52.653Z,57.38
2022-08-31T03:38:52.241Z,56.64
2022-08-31T03:41:45.028Z,55.38
2022-08-31T03:44:51.204Z,56.51
2022-08-31T03:48:00.737Z,55.43
2022-08-31T03:51:06.203Z,54.74
2022-08-31T03:54:13.734Z,55.35
2022-08-31T03:57:22.068Z,54.88
2022-08-31T04:00:28.773Z,54.83
2022-08-31T04:03:36.444Z,54.76
2022-08-31T04:07:01.321Z,54.96
2022-08-31T04:10:19.156Z,54.62
2022-08-31T04:13:43.682Z,53.53
2022-08-31T04:16:48.727Z,53.93
2022-08-31T04:19:56.689Z,53.55
2022-08-31T04:23:06.508Z,53.45
2022-08-31T04:26:14.223Z,53.02
2022-08-31T04:29:20.157Z,52.70
2022-08-31T04:32:28.217Z,53.32
2022-08-31T04:35:34.355Z,53.28
2022-08-31T04:38:39.726Z,53.07
2022-08-31T04:41:47.298Z,53.36
2022-08-31T04:44:53.070Z,52.75
2022-08-31T04:47:59.064Z,53.94
2022-08-31T04:51:03.688Z,53.68
2022-08-31T04:54:09.479Z,53.99
2022-08-31T04:57:15.085Z,54.37
2022-08-31T05:00:21.724Z,54.65
2022-08-31T05:03:35.957Z,54.33
2022-08-31T05:06:43.963Z,53.86
2022-08-31T05:09:50.431Z,54.76
2022-08-31T05:12:58.462Z,53.01
2022-08-31T05:16:05.092Z,52.97
2022-08-31T05:19:12.564Z,52.18
2022-08-31T05:22:19.550Z,51.48
2022-08-31T05:25:25.047Z,51.46
2022-08-31T05:28:30.277Z,50.45
2022-08-31T05:31:37.297Z,50.38
2022-08-31T05:34:42.745Z,48.81
2022-08-31T05:37:48.786Z,47.66
2022-08-31T05:40:56.669Z,47.30
2022-08-31T05:44:02.758Z,47.06
2022-08-31T05:47:10.222Z,50.51
2022-08-31T05:50:15.546Z,49.52
2022-08-31T05:53:21.036Z,49.05
2022-08-31T05:56:22.350Z,48.87
2022-08-31T05:59:27.878Z,48.73
2022-08-31T06:02:33.194Z,48.85
2022-08-31T06:05:40.591Z,48.72
2022-08-31T06:08:46.025Z,48.75
2022-08-31T06:11:51.302Z,48.08
2022-08-31T06:14:57.813Z,47.38
2022-08-31T06:18:04.844Z,47.84
2022-08-31T06:21:24.877Z,47.14
2022-08-31T06:24:31.578Z,47.38
2022-08-31T06:27:30.511Z,47.43
2022-08-31T06:30:54.414Z,47.07
2022-08-31T06:33:46.282Z,46.88
2022-08-31T06:36:55.384Z,46.99
2022-08-31T06:40:15.423Z,46.67
2022-08-31T06:43:40.658Z,46.43
2022-08-31T06:46:55.642Z,45.67
2022-08-31T06:50:03.547Z,45.49
2022-08-31T06:53:09.133Z,45.29
2022-08-31T06:56:24.471Z,44.83
2022-08-31T06:59:47.363Z,44.55
2022-08-31T07:03:12.236Z,44.46
2022-08-31T07:06:27.126Z,43.88
2022-08-31T07:09:33.544Z,43.50
2022-08-31T07:12:39.723Z,43.20
2022-08-31T07:15:45.677Z,42.75
2022-08-31T07:18:51.286Z,42.19
2022-08-31T07:22:11.442Z,42.98
2022-08-31T07:25:12.098Z,42.53
2022-08-31T07:28:19.878Z,42.50
2022-08-31T07:31:26.695Z,42.90
2022-08-31T07:34:38.484Z,42.93
2022-08-31T07:38:09.448Z,42.67
2022-08-31T07:41:32.289Z,43.52
2022-08-31T07:44:40.953Z,43.80
2022-08-31T07:47:51.889Z,44.24
2022-08-31T07:50:53.455Z,43.83
2022-08-31T07:53:55.629Z,43.94
2022-08-31T07:57:06.022Z,43.54
2022-08-31T08:00:13.973Z,42.70
2022-08-31T08:03:25.005Z,42.16
2022-08-31T08:06:55.640Z,42.78
2022-08-31T08:10:08.848Z,43.00
2022-08-31T08:13:19.687Z,42.73
2022-08-31T08:16:27.721Z,41.87
2022-08-31T08:19:43.990Z,41.25
2022-08-31T08:22:54.081Z,39.56
2022-08-31T08:26:03.064Z,40.26
2022-08-31T08:29:27.408Z,39.61
2022-08-31T08:32:34.589Z,40.40
2022-08-31T08:35:39.408Z,40.50
2022-08-31T08:38:45.654Z,40.06
2022-08-31T08:41:53.859Z,39.48
2022-08-31T08:44:59.996Z,38.81
2022-08-31T08:48:05.719Z,39.24
2022-08-31T08:51:14.272Z,38.97
2022-08-31T08:54:25.988Z,38.16
2022-08-31T08:57:28.498Z,37.67
2022-08-31T09:00:39.884Z,37.51
2022-08-31T09:04:06.177Z,38.40
2022-08-31T09:07:50.889Z,37.17
2022-08-31T09:10:58.905Z,37.65
2022-08-31T09:14:54.542Z,37.08
2022-08-31T09:18:08.518Z,36.42
2022-08-31T09:21:36.387Z,36.17
2022-08-31T09:24:42.680Z,36.64
2022-08-31T09:28:07.934Z,36.96
2022-08-31T09:31:13.451Z,37.54
2022-08-31T09:34:23.737Z,37.04
2022-08-31T09:37:40.149Z,36.59
2022-08-31T09:40:55.630Z,36.47
2022-08-31T09:44:01.690Z,37.75
2022-08-31T09:47:09.140Z,37.55
2022-08-31T09:50:15.626Z,37.18
2022-08-31T09:53:54.574Z,36.69
2022-08-31T09:57:09.716Z,37.00
2022-08-31T10:00:20.125Z,37.57
2022-08-31T10:03:35.987Z,36.89
2022-08-31T10:06:47.691Z,36.59
2022-08-31T10:10:01.111Z,37.28
2022-08-31T10:13:22.835Z,36.07
2022-08-31T10:16:50.283Z,36.07
2022-08-31T10:20:01.673Z,36.27
2022-08-31T10:23:13.670Z,35.66
2022-08-31T10:26:34.597Z,35.57
2022-08-31T10:29:53.298Z,36.29
2022-08-31T10:33:21.615Z,35.86
2022-08-31T10:36:27.443Z,35.75
2022-08-31T10:39:57.710Z,35.91
2022-08-31T10:43:13.521Z,35.38
2022-08-31T10:46:23.065Z,34.40
2022-08-31T10:49:30.610Z,35.73
2022-08-31T10:52:43.113Z,35.07
2022-08-31T10:56:13.805Z,34.58
2022-08-31T10:59:35.264Z,35.05
2022-08-31T11:03:16.472Z,34.25
2022-08-31T11:07:00.205Z,34.82
2022-08-31T11:10:44.185Z,34.05
2022-08-31T11:14:19.732Z,34.50
2022-08-31T11:17:59.119Z,34.58
2022-08-31T11:21:43.315Z,35.09
2022-08-31T11:25:16.202Z,35.57
2022-08-31T11:28:36.923Z,34.88
2022-08-31T11:31:43.855Z,34.60
2022-08-31T11:35:03.717Z,35.28
2022-08-31T11:38:10.430Z,34.56
2022-08-31T11:41:17.876Z,34.37
2022-08-31T11:44:25.771Z,34.54
2022-08-31T11:47:46.921Z,34.31
2022-08-31T11:51:21.437Z,33.91
2022-08-31T11:54:45.772Z,33.60
2022-08-31T11:58:20.910Z,32.58
2022-08-31T12:01:37.612Z,33.05
2022-08-31T12:05:04.927Z,32.56
2022-08-31T12:08:11.458Z,32.98
2022-08-31T12:11:27.728Z,32.79
2022-08-31T12:14:47.559Z,32.06
2022-08-31T12:18:31.595Z,31.95
2022-08-31T12:22:13.245Z,32.45
2022-08-31T12:25:33.439Z,32.32
2022-08-31T12:29:02.604Z,32.51
2022-08-31T12:32:45.027Z,32.24
2022-08-31T12:35:52.504Z,32.15
2022-08-31T12:38:58.572Z,32.18
2022-08-31T12:42:16.768Z,31.42
2022-08-31T12:45:23.123Z,31.46
2022-08-31T12:48:42.511Z,32.14
2022-08-31T12:52:26.207Z,31.85
2022-08-31T12:55:53.169Z,32.16
2022-08-31T12:59:10.944Z,32.74
2022-08-31T13:02:16.745Z,32.37
2022-08-31T13:05:40.149Z,32.17
2022-08-31T13:08:56.888Z,31.79
2022-08-31T13:12:05.103Z,31.87
2022-08-31T13:15:10.451Z,32.01
2022-08-31T13:18:19.996Z,31.68
2022-08-31T13:21:26.406Z,31.95
2022-08-31T13:24:37.781Z,31.90
2022-08-31T13:27:44.812Z,31.80
2022-08-31T13:30:55.404Z,32.02
2022-08-31T13:33:57.218Z,31.83
2022-08-31T13:37:07.229Z,32.25
2022-08-31T13:40:18.940Z,32.06
2022-08-31T13:43:26.507Z,31.62
2022-08-31T13:46:42.823Z,32.17
2022-08-31T13:49:46.422Z,31.54
2022-08-31T13:53:09.675Z,32.08
2022-08-31T13:55:58.661Z,32.20
2022-08-31T13:59:03.986Z,32.72
2022-08-31T14:02:16.779Z,32.80
2022-08-31T14:05:22.905Z,32.41
2022-08-31T14:08:32.991Z,33.04
2022-08-31T14:11:38.932Z,32.83
2022-08-31T14:14:46.573Z,32.85
2022-08-31T14:21:09.986Z,33.06
2022-08-31T14:23:51.021Z,33.36
2022-08-31T14:26:58.848Z,33.27
2022-08-31T14:30:06.814Z,33.77
2022-08-31T14:33:17.711Z,34.07
2022-08-31T14:36:23.837Z,33.96
2022-08-31T14:39:29.425Z,33.97
2022-08-31T14:42:45.010Z,34.10
2022-08-31T14:45:50.701Z,33.93
2022-08-31T14:48:56.110Z,34.31
2022-08-31T14:52:04.406Z,34.44
2022-08-31T14:55:09.314Z,34.44
2022-08-31T14:58:18.048Z,35.04
2022-08-31T15:01:24.475Z,35.32
2022-08-31T15:04:34.440Z,35.09
2022-08-31T15:07:42.004Z,35.61
2022-08-31T15:10:52.623Z,35.84
2022-08-31T15:14:01.564Z,36.59
2022-08-31T15:17:30.395Z,36.59
2022-08-31T15:20:36.396Z,36.60
2022-08-31T15:23:44.134Z,36.84
2022-08-31T15:26:44.349Z,36.78
2022-08-31T15:29:54.378Z,36.31
2022-08-31T15:33:02.470Z,36.05
2022-08-31T15:36:19.272Z,36.32
2022-08-31T15:39:25.811Z,36.44
2022-08-31T15:42:30.963Z,36.29
2022-08-31T15:45:37.933Z,36.35
2022-08-31T15:48:49.317Z,36.63
2022-08-31T15:52:00.538Z,37.21
2022-08-31T15:55:04.984Z,37.47
2022-08-31T15:58:11.619Z,37.27
2022-08-31T16:01:18.947Z,37.59
2022-08-31T16:04:26.682Z,37.86
2022-08-31T16:07:31.865Z,38.44
2022-08-31T16:10:37.828Z,39.08
2022-08-31T16:13:44.580Z,39.26
2022-08-31T16:16:52.828Z,39.86
2022-08-31T16:19:58.915Z,40.37
2022-08-31T16:23:05.061Z,40.68
2022-08-31T16:26:12.149Z,40.61
2022-08-31T16:29:21.081Z,41.04
2022-08-31T16:32:26.424Z,40.94
2022-08-31T16:35:32.758Z,40.60
2022-08-31T16:38:38.279Z,40.84
2022-08-31T16:41:43.793Z,41.13
2022-08-31T16:44:51.612Z,41.03
2022-08-31T16:47:59.311Z,41.02
2022-08-31T16:51:07.883Z,41.59
2022-08-31T16:54:16.154Z,41.45
2022-08-31T16:57:22.715Z,41.48
2022-08-31T17:00:32.195Z,41.55
2022-08-31T17:03:35.016Z,41.43
2022-08-31T17:06:44.309Z,40.82
2022-08-31T17:09:50.160Z,40.78
2022-08-31T17:12:56.384Z,40.41
2022-08-31T17:16:02.879Z,40.09
2022-08-31T17:19:11.225Z,39.60
2022-08-31T17:22:25.771Z,40.01
2022-08-31T17:25:26.383Z,39.78
2022-08-31T17:28:32.365Z,39.79
2022-08-31T17:31:38.286Z,40.09
2022-08-31T17:34:46.521Z,40.05
2022-08-31T17:37:53.150Z,39.81
2022-08-31T17:40:58.025Z,40.09
2022-08-31T17:44:03.934Z,40.22
2022-08-31T17:47:08.737Z,40.38
2022-08-31T17:50:13.604Z,39.85
2022-08-31T17:53:18.444Z,40.21
2022-08-31T17:56:25.158Z,40.39
2022-08-31T17:59:28.006Z,40.52
2022-08-31T18:02:39.695Z,40.63
2022-08-31T18:05:45.212Z,40.78
2022-08-31T18:08:51.660Z,40.90
2022-08-31T18:11:57.374Z,41.24
2022-08-31T18:15:05.449Z,41.34
2022-08-31T18:18:11.850Z,41.53
2022-08-31T18:21:25.464Z,42.37
2022-08-31T18:24:31.419Z,42.49
2022-08-31T18:27:37.855Z,42.83
2022-08-31T18:30:46.437Z,43.27
2022-08-31T18:33:46.858Z,42.96
2022-08-31T18:36:53.672Z,43.24
2022-08-31T18:40:17.727Z,43.81
2022-08-31T18:43:42.309Z,43.89
2022-08-31T18:46:47.785Z,43.75
2022-08-31T18:49:55.343Z,43.98
2022-08-31T18:53:01.764Z,44.33
2022-08-31T18:56:07.646Z,44.48
2022-08-31T18:59:14.129Z,44.53
2022-08-31T19:02:19.520Z,44.63
2022-08-31T19:05:26.986Z,44.68
2022-08-31T19:08:33.000Z,44.68
2022-08-31T19:11:40.869Z,45.13
2022-08-31T19:14:50.580Z,45.55
2022-08-31T19:17:56.177Z,45.64
2022-08-31T19:21:01.574Z,45.92
2022-08-31T19:24:07.383Z,46.37
2022-08-31T19:27:13.363Z,46.27
2022-08-31T19:30:24.596Z,46.67
2022-08-31T19:33:30.188Z,46.86
2022-08-31T19:36:37.547Z,46.80
2022-08-31T19:39:48.437Z,46.76
2022-08-31T19:43:42.962Z,46.24
2022-08-31T19:46:16.979Z,46.36
2022-08-31T19:49:09.390Z,46.69
2022-08-31T19:52:18.626Z,47.12
2022-08-31T19:55:25.585Z,47.20
2022-08-31T19:58:33.149Z,47.35
2022-08-31T20:01:43.790Z,48.17
2022-08-31T20:04:49.629Z,48.36
2022-08-31T20:07:57.194Z,48.43
2022-08-31T20:11:03.234Z,48.45
2022-08-31T20:14:08.950Z,48.46
2022-08-31T20:17:16.422Z,48.14
2022-08-31T20:20:23.280Z,48.40
2022-08-31T20:23:31.661Z,48.30
2022-08-31T20:26:47.104Z,48.12
2022-08-31T20:29:47.350Z,48.06
2022-08-31T20:32:54.134Z,48.29
2022-08-31T20:36:01.338Z,48.40
2022-08-31T20:39:10.836Z,48.24
2022-08-31T20:42:16.372Z,48.39
2022-08-31T20:45:23.180Z,48.45
2022-08-31T20:48:47.412Z,48.53
2022-08-31T20:51:53.076Z,48.09
2022-08-31T20:55:02.347Z,48.26
2022-08-31T20:58:06.173Z,48.03
2022-08-31T21:01:11.234Z,47.60
2022-08-31T21:04:15.862Z,46.91
2022-08-31T21:07:23.714Z,46.78
2022-08-31T21:10:36.964Z,46.93
2022-08-31T21:13:37.594Z,47.04
2022-08-31T21:16:43.424Z,47.07
2022-08-31T21:19:49.820Z,47.00
2022-08-31T21:22:56.290Z,46.79
2022-08-31T21:26:01.971Z,46.99
2022-08-31T21:29:08.525Z,47.42
2022-08-31T21:32:14.243Z,47.62
2022-08-31T21:35:18.916Z,47.49
2022-08-31T21:38:25.476Z,47.62
2022-08-31T21:41:33.284Z,47.70
2022-08-31T21:44:38.374Z,48.00
2022-08-31T21:47:45.007Z,47.84
2022-08-31T21:50:50.487Z,47.61
2022-08-31T21:53:55.725Z,48.35
2022-08-31T21:57:07.171Z,50.84
2022-08-31T22:00:15.979Z,53.54
2022-08-31T22:03:24.969Z,55.08
2022-08-31T22:06:33.465Z,55.94
2022-08-31T22:09:40.205Z,56.19
2022-08-31T22:12:46.096Z,56.04
2022-08-31T22:15:53.882Z,56.35
2022-08-31T22:19:06.885Z,56.36
2022-08-31T22:22:14.154Z,56.36
2022-08-31T22:25:20.616Z,55.79
2022-08-31T22:28:27.091Z,55.50
2022-08-31T22:31:35.011Z,54.96
2022-08-31T22:34:41.563Z,55.47
2022-08-31T22:37:47.679Z,55.49
2022-08-31T22:40:56.518Z,55.50
2022-08-31T22:44:03.869Z,55.65
2022-08-31T22:47:09.428Z,55.77
2022-08-31T22:50:07.772Z,55.37
2022-08-31T22:53:00.940Z,55.16
2022-08-31T22:56:06.037Z,55.37
2022-08-31T22:59:16.622Z,55.13
2022-08-31T23:02:21.244Z,54.94
2022-08-31T23:05:28.239Z,55.07
2022-08-31T23:08:35.126Z,55.41
2022-08-31T23:11:41.157Z,55.46
2022-08-31T23:14:48.879Z,55.52
2022-08-31T23:17:56.236Z,55.05
2022-08-31T23:21:02.943Z,55.29
2022-08-31T23:24:13.387Z,56.27
2022-08-31T23:27:15.111Z,56.59
2022-08-31T23:30:09.937Z,57.10
2022-08-31T23:33:15.443Z,57.08
2022-08-31T23:36:21.308Z,57.29
2022-08-31T23:39:27.094Z,56.44
2022-08-31T23:42:32.555Z,56.54
2022-08-31T23:45:40.411Z,57.27
2022-08-31T23:48:46.169Z,57.26
2022-08-31T23:51:51.453Z,57.55
2022-08-31T23:54:58.019Z,57.75
2022-08-31T23:58:05.552Z,57.28
